Gustavus Airport Gustavus US
ICAO: PAGS
IATA:
Category: Medium
Scheduled Services:

Elevation: 35 ft
TransAlt. 18000 ft.

Airport Communications:
AWOS 3:125.9
ANCHORAGE CNTR:133.2
CTAF:122.5
JUNEAU RDO:122.65

PAGS Zoom In..

If you have problems with the map follow the link
https://www.worldairports.se/pages/airport.php?
ICAO=PAGS

Runways:

(A) RW 02 length 3146 ft width 60 ft
---- / hdg 21

(B) RW 11 length 6721 ft width 150 ft
---- / hdg 115

(C) RW 20 length 3146 ft width 60 ft
---- / hdg 201

(D) RW 29 length 6721 ft width 150 ft
---- / hdg 295

Location; PAGS
Day. 16 / Time. 01.56 Zulu
* Altimeter: 29.85
* Temperature: 00° c. 32°f.
* Wind from: 320° Speed 04 kn.
Dewpoint: -01° c.
Visibility: 10 Statute Miles.
Clouds: Overcast 4200 ft.

PAGS 160156Z AUTO 32004KT 10SM OVC042 00/M01 A2985 RMK AO2 SLP108 T00001006 FZRANO


Wind From 320°
Speed 04 kn.

 
 
jpsmedia worldairports.se 2019   terms of use